Matagami Airport
CYNM : now visible

Airfield :











YOU CAN JOIN US ON...

 
LOGIN :

Register | Disclaimer

   EN    FR    IT 

 









Legend :    VFR   Marginal VFR   IFR   Intensive IFR   Very Intensive IFR
Visi :
Ceiling :
>= 8 km
>= 3000ft
5 to 8 km
1000 to 3000 ft
1500m to 5 km
500 to 1000 ft
800 to 1500m
200 to 500 ft
< 800m
< 200 ft
Symbols :   Thunderstorms  Fog  Heavy snow  Heavy precipitations  Wind > 20 kt






- Airport Elevation : 918 ft
- IATA code : YNM


CYNM - Matagami

CURRENT METAR :
  • 231642Z AUTO 22015G20KT 160V260 9SM SCT060 BKN083 16/05 A2992 RMK SLP138 DENSITY ALT 1300FT

EXPIRED METARs :
  • 231638Z AUTO 22015G20KT 160V260 9SM -RA SCT055 BKN083 16/05 A2992 RMK SLP137 DENSITY ALT 1200FT
  • 231631Z AUTO 23005KT 180V270 9SM -RA SCT055 BKN079 15/07 A2992 RMK SLP138 DENSITY ALT 1200FT
  • 231600Z AUTO 25011G16KT 9SM FEW050 BKN076 16/05 A2992 RMK SLP140 DENSITY ALT 1300FT
  • 231500Z AUTO 23009KT 200V290 9SM BKN044 BKN055 BKN080 16/06 A2992 RMK SLP142 DENSITY ALT 1200FT
  • 231400Z AUTO 20012KT 180V270 9SM SCT037 14/07 A2994 RMK SLP147 DENSITY ALT 1100FT

TAF N/A
CZUL FIR / North America



MET'MAP, your aeronautical weather chart ! - Copyright ORBIFLY December 2007 - Disclaimer

ORBIFLY MET'MAP TEAM :

Programming & Development : Alexandra Zaïnal
Concept & original design : Baudouin d'Aumeries
Assistance for programming : Marc-Olivier Méhu
Technical & hardware support : Manuel Goepfert

Contact : metmap@orbifly.com




SOURCES & CREDITS :

   NOAA       Earth
Advisory